地図

経路データ

SID SEASON NUMBER BASIN SUBBASIN NAME ISO_TIME NATURE LAT LON WMO_WIND WMO_PRES WMO_AGENCY TRACK_TYPE DIST2LAND LANDFALL IFLAG USA_AGENCY USA_ATCF_ID USA_LAT USA_LON USA_RECORD USA_STATUS USA_WIND USA_PRES USA_SSHS USA_R34_NE USA_R34_SE USA_R34_SW USA_R34_NW USA_R50_NE USA_R50_SE USA_R50_SW USA_R50_NW USA_R64_NE USA_R64_SE USA_R64_SW USA_R64_NW USA_POCI USA_ROCI USA_RMW USA_EYE TOKYO_LAT TOKYO_LON TOKYO_GRADE TOKYO_WIND TOKYO_PRES TOKYO_R50_DIR TOKYO_R50_LONG TOKYO_R50_SHORT TOKYO_R30_DIR TOKYO_R30_LONG TOKYO_R30_SHORT TOKYO_LAND CMA_LAT CMA_LON CMA_CAT CMA_WIND CMA_PRES HKO_LAT HKO_LON HKO_CAT HKO_WIND HKO_PRES NEWDELHI_LAT NEWDELHI_LON NEWDELHI_GRADE NEWDELHI_WIND NEWDELHI_PRES NEWDELHI_CI NEWDELHI_DP NEWDELHI_POCI REUNION_LAT REUNION_LON REUNION_TYPE REUNION_WIND REUNION_PRES REUNION_TNUM REUNION_CI REUNION_RMW REUNION_R34_NE REUNION_R34_SE REUNION_R34_SW REUNION_R34_NW REUNION_R50_NE REUNION_R50_SE REUNION_R50_SW REUNION_R50_NW REUNION_R64_NE REUNION_R64_SE REUNION_R64_SW REUNION_R64_NW BOM_LAT BOM_LON BOM_TYPE BOM_WIND BOM_PRES BOM_TNUM BOM_CI BOM_RMW BOM_R34_NE BOM_R34_SE BOM_R34_SW BOM_R34_NW BOM_R50_NE BOM_R50_SE BOM_R50_SW BOM_R50_NW BOM_R64_NE BOM_R64_SE BOM_R64_SW BOM_R64_NW BOM_ROCI BOM_POCI BOM_EYE BOM_POS_METHOD BOM_PRES_METHOD NADI_LAT NADI_LON NADI_CAT NADI_WIND NADI_PRES WELLINGTON_LAT WELLINGTON_LON WELLINGTON_WIND WELLINGTON_PRES DS824_LAT DS824_LON DS824_STAGE DS824_WIND DS824_PRES TD9636_LAT TD9636_LON TD9636_STAGE TD9636_WIND TD9636_PRES TD9635_LAT TD9635_LON TD9635_WIND TD9635_PRES TD9635_ROCI NEUMANN_LAT NEUMANN_LON NEUMANN_CLASS NEUMANN_WIND NEUMANN_PRES MLC_LAT MLC_LON MLC_CLASS MLC_WIND MLC_PRES USA_GUST BOM_GUST BOM_GUST_PER REUNION_GUST REUNION_GUST_PER USA_SEAHGT USA_SEARAD_NE USA_SEARAD_SE USA_SEARAD_SW USA_SEARAD_NW STORM_SPEED STORM_DIR
1992054S14044 1992 13 SI MM ELIZABETHA 1992-02-22 18:00:00 TS -14.0000 43.6000 21 1002 reunion main 271 243 _____O______O_ -1 -14.0000 43.6000 2 21 1002 9.90000 1.50000 -14.0000 43.6000 TC 30 1000 6 140
1992054S14044 1992 13 SI MM ELIZABETHA 1992-02-22 21:00:00 TS -14.2300 43.7949 main 243 214 _____P______P_ -1 -14.2300 43.7949 2 21 1002 -14.2300 43.7949 TC 27 1001 6 136
1992054S14044 1992 13 SI MM ELIZABETHA 1992-02-23 00:00:00 TS -14.4000 44.0000 21 1002 reunion main 214 193 _____O______O_ -1 -14.4000 44.0000 2 21 1002 9.90000 1.50000 -14.4000 44.0000 TC 25 1002 5 121
1992054S14044 1992 13 SI MM ELIZABETHA 1992-02-23 03:00:00 TS -14.4725 44.2151 main 193 183 _____P______P_ -1 -14.4725 44.2151 2 22 1001 -14.4725 44.2151 TC 27 1001 4 104
1992054S14044 1992 13 SI MM ELIZABETHA 1992-02-23 06:00:00 TS -14.5000 44.4000 24 1000 reunion main 183 179 _____O______O_ -1 -14.5000 44.4000 2 24 1000 9.90000 2.00000 -14.5000 44.4000 TC 30 1000 3 106
1992054S14044 1992 13 SI MM ELIZABETHA 1992-02-23 09:00:00 TS -14.5499 44.5000 main 179 165 _____P______P_ -1 -14.5499 44.5000 2 24 999 -14.5499 44.5000 TC 30 999 2 117
1992054S14044 1992 13 SI MM ELIZABETHA 1992-02-23 12:00:00 TS -14.6000 44.6000 25 999 reunion main 165 159 _____O______O_ -1 -14.6000 44.6000 2 25 999 9.90000 2.00000 -14.6000 44.6000 TC 30 999 3 112
1992054S14044 1992 13 SI MM ELIZABETHA 1992-02-23 15:00:00 TS -14.6499 44.7625 main 159 145 _____P______P_ -1 -14.6499 44.7625 2 26 998 -14.6499 44.7625 TC 30 999 4 104
1992054S14044 1992 13 SI MM ELIZABETHA 1992-02-23 18:00:00 TS -14.7000 45.0000 28 997 reunion main 145 138 _____O______O_ -1 -14.7000 45.0000 2 28 997 9.90000 2.50000 -14.7000 45.0000 TC 30 999 6 99
1992054S14044 1992 13 SI MM ELIZABETHA 1992-02-23 21:00:00 TS -14.7426 45.3575 main 136 116 _____P______P_ -1 -14.7426 45.3575 2 31 994 -14.7426 45.3575 TC 37 995 7 98
1992054S14044 1992 13 SI MM ELIZABETHA 1992-02-24 00:00:00 TS -14.8000 45.7000 35 992 reunion main 116 93 _____O______O_ -1 -14.8000 45.7000 3 35 992 9.90000 3.00000 -14.8000 45.7000 TC 45 992 5 104
1992054S14044 1992 13 SI MM ELIZABETHA 1992-02-24 03:00:00 TS -14.8699 45.9025 main 93 78 _____P______P_ -1 -14.8699 45.9025 3 35 992 -14.8699 45.9025 TC 45 992 4 124
1992054S14044 1992 13 SI MM ELIZABETHA 1992-02-24 06:00:00 TS -15.0000 46.0000 35 992 reunion main 78 62 _____O______O_ -1 -15.0000 46.0000 3 35 992 9.90000 3.00000 -15.0000 46.0000 TC 45 992 4 163
1992054S14044 1992 13 SI MM ELIZABETHA 1992-02-24 09:00:00 TS -15.2350 46.0151 main 62 33 _____P______P_ -1 -15.2350 46.0151 3 35 992 -15.2350 46.0151 TC 45 992 5 178
1992054S14044 1992 13 SI MM ELIZABETHA 1992-02-24 12:00:00 TS -15.5000 46.0000 35 992 reunion main 33 11 _____O______O_ -1 -15.5000 46.0000 3 35 992 9.90000 3.00000 -15.5000 46.0000 TC 45 992 5 0
1992054S14044 1992 13 SI MM ELIZABETHA 1992-02-24 15:00:00 TS -15.7000 46.0275 main 11 0 _____P______P_ -1 -15.7000 46.0275 3 32 994 -15.7000 46.0275 TC 37 995 4 167
1992054S14044 1992 13 SI MM ELIZABETHA 1992-02-24 18:00:00 TS -15.9000 46.1000 29 996 reunion main 0 0 _____O______O_ -1 -15.9000 46.1000 3 29 996 9.90000 3.00000 -15.9000 46.1000 TC 30 999 5 156
1992054S14044 1992 13 SI MM ELIZABETHA 1992-02-24 21:00:00 TS -16.1575 46.2424 main 0 0 _____P______P_ -1 -16.1575 46.2424 3 28 997 -16.1575 46.2424 TC 32 998 6 150
1992054S14044 1992 13 SI MM ELIZABETHA 1992-02-25 00:00:00 TS -16.4000 46.4000 27 998 reunion main 0 0 _____O______O_ -1 -16.4000 46.4000 2 27 998 9.90000 -16.4000 46.4000 TC 35 998 5 148
1992054S14044 1992 13 SI MM ELIZABETHA 1992-02-25 03:00:00 TS -16.5800 46.5225 main 0 0 _____P______P_ -1 -16.5800 46.5225 2 25 999 -16.5800 46.5225 TC 32 999 4 148
1992054S14044 1992 13 SI MM ELIZABETHA 1992-02-25 06:00:00 TS -16.7000 46.6000 24 1000 reunion main 0 0 _____O______O_ -1 -16.7000 46.6000 2 24 1000 9.90000 -16.7000 46.6000 TC 30 1000 2 156
1992054S14044 1992 13 SI MM ELIZABETHA 1992-02-25 09:00:00 TS -16.7650 46.6075 main 0 0 _____P______P_ -1 -16.7650 46.6075 2 22 1001 -16.7650 46.6075 TC 30 1001 1 0
1992054S14044 1992 13 SI MM ELIZABETHA 1992-02-25 12:00:00 TS -16.8000 46.6000 21 1002 reunion main 0 0 _____O______O_ -1 -16.8000 46.6000 2 21 1002 9.90000 -16.8000 46.6000 TC 30 1002 1 150
1992054S14044 1992 13 SI MM ELIZABETHA 1992-02-25 15:00:00 TS -16.8490 46.6410 main 0 0 _____P______P_ -1 -16.8500 46.6425 2 21 1002 -16.8450 46.6350 TC 27 1001 1 137
1992054S14044 1992 13 SI MM ELIZABETHA 1992-02-25 18:00:00 TS -16.9000 46.7000 21 1002 reunion main 0 0 _____O______O_ -1 -16.9000 46.7000 2 21 1002 9.90000 -16.9000 46.7000 TC 25 1000 1 133
1992054S14044 1992 13 SI MM ELIZABETHA 1992-02-25 21:00:00 TS -16.9500 46.7500 main 0 0 _____P________ -1 -16.9500 46.7500 2 TC 1 137
1992054S14044 1992 13 SI MM ELIZABETHA 1992-02-26 00:00:00 TS -17.0000 46.8000 reunion main 0 0 _____O________ -1 -17.0000 46.8000 6 9.90000 1 137
1992054S14044 1992 13 SI MM ELIZABETHA 1992-02-26 03:00:00 TS -17.0500 46.8500 main 0 0 _____P________ -1 -17.0500 46.8500 6 1 137
1992054S14044 1992 13 SI MM ELIZABETHA 1992-02-26 06:00:00 TS -17.1000 46.9000 reunion main 0 _____O________ -1 -17.1000 46.9000 6 9.90000 1 137

IBTrACS Databaseについて

本データベースは、米国NOAAが公開する1842年以降の世界の熱帯低気圧のベストトラックデータアーカイブInternational Best Track Archive for Climate Stewardship (IBTrACS)を、ウェブで閲覧しやすい形式に変換したものです。

最終更新日:2021-10-21